sensor_id;sensor_type;location;lat;lon;timestamp;P1;durP1;ratioP1;P2;durP2;ratioP2
17844;SDS011;9047;53.486;10.218;2024-03-06T00:01:34;19.80;;;10.52;;
17844;SDS011;9047;53.486;10.218;2024-03-06T00:04:02;18.80;;;10.40;;
17844;SDS011;9047;53.486;10.218;2024-03-06T00:06:31;19.30;;;10.57;;
17844;SDS011;9047;53.486;10.218;2024-03-06T00:09:02;16.10;;;9.90;;
17844;SDS011;9047;53.486;10.218;2024-03-06T00:11:30;18.15;;;10.05;;
17844;SDS011;9047;53.486;10.218;2024-03-06T00:13:57;16.38;;;10.32;;
17844;SDS011;9047;53.486;10.218;2024-03-06T00:16:25;16.40;;;9.82;;
17844;SDS011;9047;53.486;10.218;2024-03-06T00:18:55;16.50;;;10.10;;
17844;SDS011;9047;53.486;10.218;2024-03-06T00:21:23;18.65;;;9.50;;
17844;SDS011;9047;53.486;10.218;2024-03-06T00:23:50;14.38;;;9.55;;
17844;SDS011;9047;53.486;10.218;2024-03-06T00:26:17;17.15;;;9.15;;
17844;SDS011;9047;53.486;10.218;2024-03-06T00:28:44;16.38;;;9.35;;
17844;SDS011;9047;53.486;10.218;2024-03-06T00:31:12;15.68;;;9.60;;
17844;SDS011;9047;53.486;10.218;2024-03-06T00:33:40;17.50;;;9.90;;
17844;SDS011;9047;53.486;10.218;2024-03-06T00:36:09;15.82;;;9.80;;
17844;SDS011;9047;53.486;10.218;2024-03-06T00:38:37;16.15;;;9.35;;
17844;SDS011;9047;53.486;10.218;2024-03-06T00:41:04;15.73;;;9.63;;
17844;SDS011;9047;53.486;10.218;2024-03-06T00:43:32;16.08;;;9.02;;
17844;SDS011;9047;53.486;10.218;2024-03-06T00:46:00;17.42;;;9.60;;
17844;SDS011;9047;53.486;10.218;2024-03-06T00:48:30;16.13;;;8.82;;
17844;SDS011;9047;53.486;10.218;2024-03-06T00:50:58;16.50;;;9.07;;
17844;SDS011;9047;53.486;10.218;2024-03-06T00:53:27;14.88;;;9.15;;
17844;SDS011;9047;53.486;10.218;2024-03-06T00:55:54;15.90;;;8.98;;
17844;SDS011;9047;53.486;10.218;2024-03-06T00:58:21;13.88;;;8.85;;
17844;SDS011;9047;53.486;10.218;2024-03-06T01:00:49;14.90;;;9.63;;
17844;SDS011;9047;53.486;10.218;2024-03-06T01:03:19;14.75;;;9.15;;
17844;SDS011;9047;53.486;10.218;2024-03-06T01:05:47;15.52;;;8.95;;
17844;SDS011;9047;53.486;10.218;2024-03-06T01:08:17;14.00;;;8.50;;
17844;SDS011;9047;53.486;10.218;2024-03-06T01:10:46;14.73;;;8.63;;
17844;SDS011;9047;53.486;10.218;2024-03-06T01:13:13;15.90;;;8.70;;
17844;SDS011;9047;53.486;10.218;2024-03-06T01:15:40;13.95;;;8.35;;
17844;SDS011;9047;53.486;10.218;2024-03-06T01:18:07;15.23;;;8.75;;
17844;SDS011;9047;53.486;10.218;2024-03-06T01:20:36;14.18;;;8.95;;
17844;SDS011;9047;53.486;10.218;2024-03-06T01:23:03;14.60;;;8.20;;
17844;SDS011;9047;53.486;10.218;2024-03-06T01:25:31;13.60;;;8.25;;
17844;SDS011;9047;53.486;10.218;2024-03-06T01:28:01;15.70;;;8.57;;
17844;SDS011;9047;53.486;10.218;2024-03-06T01:30:29;13.55;;;7.43;;
17844;SDS011;9047;53.486;10.218;2024-03-06T01:32:56;13.10;;;7.95;;
17844;SDS011;9047;53.486;10.218;2024-03-06T01:35:24;13.02;;;7.93;;
17844;SDS011;9047;53.486;10.218;2024-03-06T01:37:58;11.90;;;7.43;;
17844;SDS011;9047;53.486;10.218;2024-03-06T01:40:27;15.15;;;8.25;;
17844;SDS011;9047;53.486;10.218;2024-03-06T01:42:56;13.45;;;7.85;;
17844;SDS011;9047;53.486;10.218;2024-03-06T01:45:26;13.32;;;8.15;;
17844;SDS011;9047;53.486;10.218;2024-03-06T01:47:53;12.82;;;7.82;;
17844;SDS011;9047;53.486;10.218;2024-03-06T01:50:24;14.00;;;8.18;;
17844;SDS011;9047;53.486;10.218;2024-03-06T01:52:51;14.40;;;7.95;;
17844;SDS011;9047;53.486;10.218;2024-03-06T01:55:19;13.68;;;7.93;;
17844;SDS011;9047;53.486;10.218;2024-03-06T01:57:48;10.45;;;7.20;;
17844;SDS011;9047;53.486;10.218;2024-03-06T02:00:17;12.27;;;7.53;;
17844;SDS011;9047;53.486;10.218;2024-03-06T02:02:50;11.40;;;7.78;;
17844;SDS011;9047;53.486;10.218;2024-03-06T02:05:17;13.13;;;7.80;;
17844;SDS011;9047;53.486;10.218;2024-03-06T02:07:47;11.07;;;7.40;;
17844;SDS011;9047;53.486;10.218;2024-03-06T02:10:14;11.63;;;7.22;;
17844;SDS011;9047;53.486;10.218;2024-03-06T02:12:41;12.85;;;7.50;;
17844;SDS011;9047;53.486;10.218;2024-03-06T02:15:10;10.48;;;6.70;;
17844;SDS011;9047;53.486;10.218;2024-03-06T02:17:40;11.10;;;7.57;;
17844;SDS011;9047;53.486;10.218;2024-03-06T02:20:10;13.55;;;7.07;;
17844;SDS011;9047;53.486;10.218;2024-03-06T02:22:41;12.63;;;7.38;;
17844;SDS011;9047;53.486;10.218;2024-03-06T02:25:08;11.00;;;6.90;;
17844;SDS011;9047;53.486;10.218;2024-03-06T02:27:37;10.93;;;7.18;;
17844;SDS011;9047;53.486;10.218;2024-03-06T02:30:05;11.30;;;6.53;;
17844;SDS011;9047;53.486;10.218;2024-03-06T02:32:35;11.05;;;6.90;;
17844;SDS011;9047;53.486;10.218;2024-03-06T02:35:03;10.07;;;6.93;;
17844;SDS011;9047;53.486;10.218;2024-03-06T02:37:34;10.48;;;7.38;;
17844;SDS011;9047;53.486;10.218;2024-03-06T02:40:05;11.55;;;6.75;;
17844;SDS011;9047;53.486;10.218;2024-03-06T02:42:33;10.85;;;7.43;;
17844;SDS011;9047;53.486;10.218;2024-03-06T02:45:04;11.75;;;7.70;;
17844;SDS011;9047;53.486;10.218;2024-03-06T02:47:33;13.35;;;7.40;;
17844;SDS011;9047;53.486;10.218;2024-03-06T02:50:04;10.88;;;6.95;;
17844;SDS011;9047;53.486;10.218;2024-03-06T02:52:32;11.88;;;7.30;;
17844;SDS011;9047;53.486;10.218;2024-03-06T02:54:59;12.00;;;7.03;;
17844;SDS011;9047;53.486;10.218;2024-03-06T02:57:28;11.38;;;7.05;;
17844;SDS011;9047;53.486;10.218;2024-03-06T02:59:57;11.82;;;7.45;;
17844;SDS011;9047;53.486;10.218;2024-03-06T03:02:25;11.75;;;7.47;;
17844;SDS011;9047;53.486;10.218;2024-03-06T03:04:54;14.30;;;7.30;;
17844;SDS011;9047;53.486;10.218;2024-03-06T03:07:22;12.55;;;7.78;;
17844;SDS011;9047;53.486;10.218;2024-03-06T03:09:52;12.18;;;7.55;;
17844;SDS011;9047;53.486;10.218;2024-03-06T03:12:19;12.00;;;7.65;;
17844;SDS011;9047;53.486;10.218;2024-03-06T03:14:49;11.95;;;7.65;;
17844;SDS011;9047;53.486;10.218;2024-03-06T03:17:17;11.93;;;7.57;;
17844;SDS011;9047;53.486;10.218;2024-03-06T03:19:44;14.27;;;8.10;;
17844;SDS011;9047;53.486;10.218;2024-03-06T03:22:11;13.73;;;8.07;;
17844;SDS011;9047;53.486;10.218;2024-03-06T03:24:43;17.08;;;9.18;;
17844;SDS011;9047;53.486;10.218;2024-03-06T03:27:10;13.90;;;8.40;;
17844;SDS011;9047;53.486;10.218;2024-03-06T03:29:40;14.15;;;8.88;;
17844;SDS011;9047;53.486;10.218;2024-03-06T03:32:08;12.98;;;8.93;;
17844;SDS011;9047;53.486;10.218;2024-03-06T03:34:37;15.60;;;9.07;;
17844;SDS011;9047;53.486;10.218;2024-03-06T03:37:04;17.02;;;8.93;;
17844;SDS011;9047;53.486;10.218;2024-03-06T03:39:31;13.23;;;8.23;;
17844;SDS011;9047;53.486;10.218;2024-03-06T03:42:00;15.30;;;9.40;;
17844;SDS011;9047;53.486;10.218;2024-03-06T03:44:28;15.93;;;9.15;;
17844;SDS011;9047;53.486;10.218;2024-03-06T03:46:55;18.73;;;9.32;;
17844;SDS011;9047;53.486;10.218;2024-03-06T03:49:24;17.70;;;9.65;;
17844;SDS011;9047;53.486;10.218;2024-03-06T03:51:51;16.20;;;8.60;;
17844;SDS011;9047;53.486;10.218;2024-03-06T03:54:18;16.15;;;9.52;;
17844;SDS011;9047;53.486;10.218;2024-03-06T03:56:46;19.58;;;10.32;;
17844;SDS011;9047;53.486;10.218;2024-03-06T03:59:14;18.73;;;9.48;;
17844;SDS011;9047;53.486;10.218;2024-03-06T04:01:47;16.50;;;9.45;;
17844;SDS011;9047;53.486;10.218;2024-03-06T04:04:14;15.23;;;9.55;;
17844;SDS011;9047;53.486;10.218;2024-03-06T04:06:44;16.73;;;9.73;;
17844;SDS011;9047;53.486;10.218;2024-03-06T04:09:12;15.70;;;9.27;;
17844;SDS011;9047;53.486;10.218;2024-03-06T04:11:41;15.55;;;9.23;;
17844;SDS011;9047;53.486;10.218;2024-03-06T04:14:10;19.55;;;9.60;;
17844;SDS011;9047;53.486;10.218;2024-03-06T04:16:39;18.95;;;9.57;;
17844;SDS011;9047;53.486;10.218;2024-03-06T04:19:07;16.17;;;9.68;;
17844;SDS011;9047;53.486;10.218;2024-03-06T04:21:40;15.98;;;8.70;;
17844;SDS011;9047;53.486;10.218;2024-03-06T04:24:14;16.85;;;9.38;;
17844;SDS011;9047;53.486;10.218;2024-03-06T04:26:42;16.67;;;9.77;;
17844;SDS011;9047;53.486;10.218;2024-03-06T04:29:11;14.63;;;8.82;;
17844;SDS011;9047;53.486;10.218;2024-03-06T04:31:38;14.85;;;9.23;;
17844;SDS011;9047;53.486;10.218;2024-03-06T04:34:06;20.05;;;9.40;;
17844;SDS011;9047;53.486;10.218;2024-03-06T04:36:33;14.27;;;8.55;;
17844;SDS011;9047;53.486;10.218;2024-03-06T04:39:00;15.10;;;8.73;;
17844;SDS011;9047;53.486;10.218;2024-03-06T04:41:35;14.68;;;8.73;;
17844;SDS011;9047;53.486;10.218;2024-03-06T04:44:03;16.50;;;8.80;;
17844;SDS011;9047;53.486;10.218;2024-03-06T04:46:33;13.93;;;8.68;;
17844;SDS011;9047;53.486;10.218;2024-03-06T04:49:00;17.23;;;9.60;;
17844;SDS011;9047;53.486;10.218;2024-03-06T04:51:28;15.85;;;9.02;;
17844;SDS011;9047;53.486;10.218;2024-03-06T04:53:57;15.10;;;8.98;;
17844;SDS011;9047;53.486;10.218;2024-03-06T04:56:26;15.13;;;8.98;;
17844;SDS011;9047;53.486;10.218;2024-03-06T04:58:55;14.25;;;8.55;;
17844;SDS011;9047;53.486;10.218;2024-03-06T05:01:29;16.30;;;8.88;;
17844;SDS011;9047;53.486;10.218;2024-03-06T05:04:00;16.85;;;9.38;;
17844;SDS011;9047;53.486;10.218;2024-03-06T05:06:31;14.32;;;8.85;;
17844;SDS011;9047;53.486;10.218;2024-03-06T05:09:01;16.58;;;9.60;;
17844;SDS011;9047;53.486;10.218;2024-03-06T05:11:32;15.60;;;8.88;;
17844;SDS011;9047;53.486;10.218;2024-03-06T05:14:05;14.25;;;8.52;;
17844;SDS011;9047;53.486;10.218;2024-03-06T05:16:34;15.73;;;8.80;;
17844;SDS011;9047;53.486;10.218;2024-03-06T05:19:01;14.57;;;8.90;;
17844;SDS011;9047;53.486;10.218;2024-03-06T05:21:30;17.55;;;9.10;;
17844;SDS011;9047;53.486;10.218;2024-03-06T05:24:00;15.15;;;8.93;;
17844;SDS011;9047;53.486;10.218;2024-03-06T05:26:28;14.52;;;8.80;;
17844;SDS011;9047;53.486;10.218;2024-03-06T05:28:56;16.85;;;8.77;;
17844;SDS011;9047;53.486;10.218;2024-03-06T05:31:26;13.70;;;9.15;;
17844;SDS011;9047;53.486;10.218;2024-03-06T05:33:52;16.67;;;8.85;;
17844;SDS011;9047;53.486;10.218;2024-03-06T05:36:20;14.80;;;8.55;;
17844;SDS011;9047;53.486;10.218;2024-03-06T05:38:47;16.08;;;9.57;;
17844;SDS011;9047;53.486;10.218;2024-03-06T05:41:14;16.52;;;9.13;;
17844;SDS011;9047;53.486;10.218;2024-03-06T05:43:43;15.90;;;9.13;;
17844;SDS011;9047;53.486;10.218;2024-03-06T05:46:10;16.35;;;9.20;;
17844;SDS011;9047;53.486;10.218;2024-03-06T05:48:45;14.80;;;8.70;;
17844;SDS011;9047;53.486;10.218;2024-03-06T05:51:13;14.85;;;9.50;;
17844;SDS011;9047;53.486;10.218;2024-03-06T05:53:40;17.35;;;9.15;;
17844;SDS011;9047;53.486;10.218;2024-03-06T05:56:08;15.55;;;9.52;;
17844;SDS011;9047;53.486;10.218;2024-03-06T05:58:35;15.80;;;9.60;;
17844;SDS011;9047;53.486;10.218;2024-03-06T06:01:03;16.58;;;9.60;;
17844;SDS011;9047;53.486;10.218;2024-03-06T06:03:30;16.00;;;9.48;;
17844;SDS011;9047;53.486;10.218;2024-03-06T06:05:59;15.82;;;9.38;;
17844;SDS011;9047;53.486;10.218;2024-03-06T06:08:25;15.88;;;9.85;;
17844;SDS011;9047;53.486;10.218;2024-03-06T06:10:53;18.60;;;10.70;;
17844;SDS011;9047;53.486;10.218;2024-03-06T06:13:21;16.35;;;9.70;;
17844;SDS011;9047;53.486;10.218;2024-03-06T06:15:49;17.02;;;10.15;;
17844;SDS011;9047;53.486;10.218;2024-03-06T06:18:16;17.88;;;10.75;;
17844;SDS011;9047;53.486;10.218;2024-03-06T06:20:43;18.95;;;10.75;;
17844;SDS011;9047;53.486;10.218;2024-03-06T06:23:11;16.02;;;10.18;;
17844;SDS011;9047;53.486;10.218;2024-03-06T06:25:38;18.45;;;9.85;;
17844;SDS011;9047;53.486;10.218;2024-03-06T06:28:05;18.35;;;10.15;;
17844;SDS011;9047;53.486;10.218;2024-03-06T06:30:36;18.85;;;10.30;;
17844;SDS011;9047;53.486;10.218;2024-03-06T06:33:05;16.70;;;9.60;;
17844;SDS011;9047;53.486;10.218;2024-03-06T06:35:32;18.38;;;10.40;;
17844;SDS011;9047;53.486;10.218;2024-03-06T06:37:59;16.92;;;10.43;;
17844;SDS011;9047;53.486;10.218;2024-03-06T06:40:29;16.20;;;10.13;;
17844;SDS011;9047;53.486;10.218;2024-03-06T06:42:59;16.23;;;9.88;;
17844;SDS011;9047;53.486;10.218;2024-03-06T06:45:27;18.50;;;10.50;;
17844;SDS011;9047;53.486;10.218;2024-03-06T06:47:55;18.33;;;10.30;;
17844;SDS011;9047;53.486;10.218;2024-03-06T06:50:23;16.60;;;9.68;;
17844;SDS011;9047;53.486;10.218;2024-03-06T06:53:00;13.63;;;8.80;;
17844;SDS011;9047;53.486;10.218;2024-03-06T06:55:30;14.43;;;9.27;;
17844;SDS011;9047;53.486;10.218;2024-03-06T06:57:57;13.32;;;8.65;;
17844;SDS011;9047;53.486;10.218;2024-03-06T07:00:26;14.50;;;8.55;;
17844;SDS011;9047;53.486;10.218;2024-03-06T07:02:55;12.30;;;8.00;;
17844;SDS011;9047;53.486;10.218;2024-03-06T07:05:26;11.20;;;7.68;;
17844;SDS011;9047;53.486;10.218;2024-03-06T07:07:56;11.60;;;7.40;;
17844;SDS011;9047;53.486;10.218;2024-03-06T07:10:26;12.27;;;7.65;;
17844;SDS011;9047;53.486;10.218;2024-03-06T07:12:58;10.55;;;7.20;;
17844;SDS011;9047;53.486;10.218;2024-03-06T07:15:30;10.27;;;6.88;;
17844;SDS011;9047;53.486;10.218;2024-03-06T07:17:59;13.13;;;7.07;;
17844;SDS011;9047;53.486;10.218;2024-03-06T07:20:33;10.73;;;6.93;;
17844;SDS011;9047;53.486;10.218;2024-03-06T07:23:01;10.68;;;7.00;;
17844;SDS011;9047;53.486;10.218;2024-03-06T07:25:39;10.45;;;7.60;;
17844;SDS011;9047;53.486;10.218;2024-03-06T07:28:10;9.45;;;6.70;;
17844;SDS011;9047;53.486;10.218;2024-03-06T07:30:38;11.52;;;6.78;;
17844;SDS011;9047;53.486;10.218;2024-03-06T07:33:08;11.00;;;6.95;;
17844;SDS011;9047;53.486;10.218;2024-03-06T07:35:36;10.93;;;6.40;;
17844;SDS011;9047;53.486;10.218;2024-03-06T07:38:04;11.00;;;6.93;;
17844;SDS011;9047;53.486;10.218;2024-03-06T07:40:39;8.52;;;6.30;;
17844;SDS011;9047;53.486;10.218;2024-03-06T07:43:13;12.75;;;6.65;;
17844;SDS011;9047;53.486;10.218;2024-03-06T07:45:43;10.93;;;6.70;;
17844;SDS011;9047;53.486;10.218;2024-03-06T07:48:12;10.50;;;6.85;;
17844;SDS011;9047;53.486;10.218;2024-03-06T07:50:42;10.57;;;6.68;;
17844;SDS011;9047;53.486;10.218;2024-03-06T07:53:15;9.82;;;7.10;;
17844;SDS011;9047;53.486;10.218;2024-03-06T07:55:50;11.57;;;7.03;;
17844;SDS011;9047;53.486;10.218;2024-03-06T07:58:20;11.57;;;7.13;;
17844;SDS011;9047;53.486;10.218;2024-03-06T08:00:57;10.45;;;7.18;;
17844;SDS011;9047;53.486;10.218;2024-03-06T08:03:29;12.65;;;7.68;;
17844;SDS011;9047;53.486;10.218;2024-03-06T08:05:56;10.40;;;6.80;;
17844;SDS011;9047;53.486;10.218;2024-03-06T08:08:30;10.35;;;7.60;;
17844;SDS011;9047;53.486;10.218;2024-03-06T08:10:59;10.45;;;7.22;;
17844;SDS011;9047;53.486;10.218;2024-03-06T08:13:37;11.38;;;6.68;;
17844;SDS011;9047;53.486;10.218;2024-03-06T08:16:06;11.20;;;7.20;;
17844;SDS011;9047;53.486;10.218;2024-03-06T08:18:34;11.68;;;7.35;;
17844;SDS011;9047;53.486;10.218;2024-03-06T08:21:06;11.35;;;6.97;;
17844;SDS011;9047;53.486;10.218;2024-03-06T08:23:36;9.75;;;6.55;;
17844;SDS011;9047;53.486;10.218;2024-03-06T08:26:15;11.40;;;7.72;;
17844;SDS011;9047;53.486;10.218;2024-03-06T08:28:47;11.73;;;7.68;;
17844;SDS011;9047;53.486;10.218;2024-03-06T08:31:22;12.43;;;7.85;;
17844;SDS011;9047;53.486;10.218;2024-03-06T08:33:52;10.48;;;7.55;;
17844;SDS011;9047;53.486;10.218;2024-03-06T08:36:20;9.85;;;7.13;;
17844;SDS011;9047;53.486;10.218;2024-03-06T08:38:52;9.52;;;6.97;;
17844;SDS011;9047;53.486;10.218;2024-03-06T08:41:21;12.65;;;7.63;;
17844;SDS011;9047;53.486;10.218;2024-03-06T08:43:53;11.27;;;7.70;;
17844;SDS011;9047;53.486;10.218;2024-03-06T08:46:22;10.57;;;7.20;;
17844;SDS011;9047;53.486;10.218;2024-03-06T08:48:55;9.13;;;6.68;;
17844;SDS011;9047;53.486;10.218;2024-03-06T08:51:23;11.10;;;7.43;;
17844;SDS011;9047;53.486;10.218;2024-03-06T08:54:05;10.75;;;7.05;;
17844;SDS011;9047;53.486;10.218;2024-03-06T08:56:39;12.57;;;7.00;;
17844;SDS011;9047;53.486;10.218;2024-03-06T08:59:08;11.45;;;7.70;;
17844;SDS011;9047;53.486;10.218;2024-03-06T09:01:43;11.90;;;7.50;;
17844;SDS011;9047;53.486;10.218;2024-03-06T09:04:14;12.55;;;8.32;;
17844;SDS011;9047;53.486;10.218;2024-03-06T09:06:42;11.30;;;7.40;;
17844;SDS011;9047;53.486;10.218;2024-03-06T09:09:14;11.90;;;7.30;;
17844;SDS011;9047;53.486;10.218;2024-03-06T09:11:45;11.75;;;7.55;;
17844;SDS011;9047;53.486;10.218;2024-03-06T09:14:20;11.50;;;7.47;;
17844;SDS011;9047;53.486;10.218;2024-03-06T09:16:48;10.60;;;7.38;;
17844;SDS011;9047;53.486;10.218;2024-03-06T09:19:19;10.98;;;7.40;;
17844;SDS011;9047;53.486;10.218;2024-03-06T09:21:50;11.68;;;7.35;;
17844;SDS011;9047;53.486;10.218;2024-03-06T09:24:19;11.70;;;6.80;;
17844;SDS011;9047;53.486;10.218;2024-03-06T09:26:48;11.48;;;7.60;;
17844;SDS011;9047;53.486;10.218;2024-03-06T09:29:21;9.52;;;7.13;;
17844;SDS011;9047;53.486;10.218;2024-03-06T09:31:52;11.10;;;7.30;;
17844;SDS011;9047;53.486;10.218;2024-03-06T09:34:22;13.07;;;7.57;;
17844;SDS011;9047;53.486;10.218;2024-03-06T09:36:54;11.57;;;7.82;;
17844;SDS011;9047;53.486;10.218;2024-03-06T09:39:22;13.10;;;8.38;;
17844;SDS011;9047;53.486;10.218;2024-03-06T09:41:54;12.73;;;8.48;;
17844;SDS011;9047;53.486;10.218;2024-03-06T09:44:27;12.57;;;8.40;;
17844;SDS011;9047;53.486;10.218;2024-03-06T09:46:54;12.65;;;8.70;;
17844;SDS011;9047;53.486;10.218;2024-03-06T09:49:34;13.23;;;8.35;;
17844;SDS011;9047;53.486;10.218;2024-03-06T09:52:08;13.65;;;8.70;;
17844;SDS011;9047;53.486;10.218;2024-03-06T09:54:38;14.95;;;8.60;;
17844;SDS011;9047;53.486;10.218;2024-03-06T09:57:09;11.32;;;7.60;;
17844;SDS011;9047;53.486;10.218;2024-03-06T09:59:41;12.63;;;8.25;;
17844;SDS011;9047;53.486;10.218;2024-03-06T10:02:13;14.73;;;9.18;;
17844;SDS011;9047;53.486;10.218;2024-03-06T10:04:51;12.55;;;8.65;;
17844;SDS011;9047;53.486;10.218;2024-03-06T10:07:21;13.13;;;8.48;;
17844;SDS011;9047;53.486;10.218;2024-03-06T10:09:52;17.33;;;8.52;;
17844;SDS011;9047;53.486;10.218;2024-03-06T10:12:23;15.38;;;8.25;;
17844;SDS011;9047;53.486;10.218;2024-03-06T10:15:01;13.68;;;9.57;;
17844;SDS011;9047;53.486;10.218;2024-03-06T10:17:31;11.52;;;8.20;;
17844;SDS011;9047;53.486;10.218;2024-03-06T10:20:01;12.32;;;7.82;;
17844;SDS011;9047;53.486;10.218;2024-03-06T10:22:45;11.68;;;7.75;;
17844;SDS011;9047;53.486;10.218;2024-03-06T10:25:15;10.80;;;7.93;;
17844;SDS011;9047;53.486;10.218;2024-03-06T10:27:46;14.48;;;8.85;;
17844;SDS011;9047;53.486;10.218;2024-03-06T10:30:31;11.80;;;8.02;;
17844;SDS011;9047;53.486;10.218;2024-03-06T10:33:02;11.48;;;8.02;;
17844;SDS011;9047;53.486;10.218;2024-03-06T10:35:33;12.05;;;8.55;;
17844;SDS011;9047;53.486;10.218;2024-03-06T10:38:01;12.63;;;8.32;;
17844;SDS011;9047;53.486;10.218;2024-03-06T10:40:38;14.07;;;9.82;;
17844;SDS011;9047;53.486;10.218;2024-03-06T10:43:07;12.85;;;8.45;;
17844;SDS011;9047;53.486;10.218;2024-03-06T10:45:41;13.65;;;8.60;;
17844;SDS011;9047;53.486;10.218;2024-03-06T10:48:14;13.55;;;8.25;;
17844;SDS011;9047;53.486;10.218;2024-03-06T10:50:48;15.55;;;9.25;;
17844;SDS011;9047;53.486;10.218;2024-03-06T10:53:18;11.68;;;8.13;;
17844;SDS011;9047;53.486;10.218;2024-03-06T10:55:47;12.38;;;7.80;;
17844;SDS011;9047;53.486;10.218;2024-03-06T10:58:21;11.45;;;8.05;;
17844;SDS011;9047;53.486;10.218;2024-03-06T11:01:02;12.75;;;7.80;;
17844;SDS011;9047;53.486;10.218;2024-03-06T11:03:34;11.82;;;7.75;;
17844;SDS011;9047;53.486;10.218;2024-03-06T11:06:02;12.48;;;8.50;;
17844;SDS011;9047;53.486;10.218;2024-03-06T11:08:34;13.68;;;7.93;;
17844;SDS011;9047;53.486;10.218;2024-03-06T11:11:18;11.93;;;8.50;;
17844;SDS011;9047;53.486;10.218;2024-03-06T11:13:47;12.95;;;7.93;;
17844;SDS011;9047;53.486;10.218;2024-03-06T11:16:18;11.27;;;8.00;;
17844;SDS011;9047;53.486;10.218;2024-03-06T11:18:54;11.55;;;8.10;;
17844;SDS011;9047;53.486;10.218;2024-03-06T11:21:32;11.93;;;7.57;;
17844;SDS011;9047;53.486;10.218;2024-03-06T11:24:22;12.90;;;7.88;;
17844;SDS011;9047;53.486;10.218;2024-03-06T11:27:02;12.82;;;8.65;;
17844;SDS011;9047;53.486;10.218;2024-03-06T11:35:27;15.82;;;8.95;;
17844;SDS011;9047;53.486;10.218;2024-03-06T11:37:55;14.30;;;8.75;;
17844;SDS011;9047;53.486;10.218;2024-03-06T11:40:22;12.75;;;8.73;;
17844;SDS011;9047;53.486;10.218;2024-03-06T11:42:57;11.77;;;7.78;;
17844;SDS011;9047;53.486;10.218;2024-03-06T11:46:07;13.63;;;8.70;;
17844;SDS011;9047;53.486;10.218;2024-03-06T11:48:38;12.40;;;8.50;;
17844;SDS011;9047;53.486;10.218;2024-03-06T11:51:07;15.23;;;8.25;;
17844;SDS011;9047;53.486;10.218;2024-03-06T11:53:39;11.63;;;7.85;;
17844;SDS011;9047;53.486;10.218;2024-03-06T11:56:09;12.43;;;8.13;;
17844;SDS011;9047;53.486;10.218;2024-03-06T11:58:40;12.85;;;7.95;;
17844;SDS011;9047;53.486;10.218;2024-03-06T12:01:09;11.00;;;7.93;;
17844;SDS011;9047;53.486;10.218;2024-03-06T12:03:41;12.68;;;7.90;;
17844;SDS011;9047;53.486;10.218;2024-03-06T12:06:11;11.02;;;7.18;;
17844;SDS011;9047;53.486;10.218;2024-03-06T12:08:47;12.35;;;7.97;;
17844;SDS011;9047;53.486;10.218;2024-03-06T12:11:15;13.50;;;8.55;;
17844;SDS011;9047;53.486;10.218;2024-03-06T12:13:47;11.18;;;8.00;;
17844;SDS011;9047;53.486;10.218;2024-03-06T12:16:14;10.75;;;7.60;;
17844;SDS011;9047;53.486;10.218;2024-03-06T12:18:45;15.20;;;8.00;;
17844;SDS011;9047;53.486;10.218;2024-03-06T12:21:17;11.57;;;8.10;;
17844;SDS011;9047;53.486;10.218;2024-03-06T12:23:49;11.90;;;8.02;;
17844;SDS011;9047;53.486;10.218;2024-03-06T12:26:28;9.43;;;7.50;;
17844;SDS011;9047;53.486;10.218;2024-03-06T12:29:03;11.20;;;7.70;;
17844;SDS011;9047;53.486;10.218;2024-03-06T12:31:34;12.75;;;7.88;;
17844;SDS011;9047;53.486;10.218;2024-03-06T12:34:04;10.48;;;7.40;;
17844;SDS011;9047;53.486;10.218;2024-03-06T12:36:37;10.38;;;7.53;;
17844;SDS011;9047;53.486;10.218;2024-03-06T12:39:25;10.55;;;7.38;;
17844;SDS011;9047;53.486;10.218;2024-03-06T12:42:02;11.73;;;7.60;;
17844;SDS011;9047;53.486;10.218;2024-03-06T12:44:37;10.77;;;7.28;;
17844;SDS011;9047;53.486;10.218;2024-03-06T12:47:11;11.57;;;7.88;;
17844;SDS011;9047;53.486;10.218;2024-03-06T12:49:42;15.75;;;7.95;;
17844;SDS011;9047;53.486;10.218;2024-03-06T12:52:12;13.10;;;8.18;;
17844;SDS011;9047;53.486;10.218;2024-03-06T12:54:41;11.85;;;7.72;;
17844;SDS011;9047;53.486;10.218;2024-03-06T12:57:10;11.63;;;7.80;;
17844;SDS011;9047;53.486;10.218;2024-03-06T12:59:39;12.60;;;7.70;;
17844;SDS011;9047;53.486;10.218;2024-03-06T13:02:11;11.35;;;7.38;;
17844;SDS011;9047;53.486;10.218;2024-03-06T13:04:49;11.00;;;7.40;;
17844;SDS011;9047;53.486;10.218;2024-03-06T13:07:16;10.60;;;7.38;;
17844;SDS011;9047;53.486;10.218;2024-03-06T13:09:49;12.57;;;7.95;;
17844;SDS011;9047;53.486;10.218;2024-03-06T13:12:16;11.38;;;7.25;;
17844;SDS011;9047;53.486;10.218;2024-03-06T13:14:48;12.57;;;7.32;;
17844;SDS011;9047;53.486;10.218;2024-03-06T13:17:20;11.40;;;7.13;;
17844;SDS011;9047;53.486;10.218;2024-03-06T13:19:53;10.55;;;7.00;;
17844;SDS011;9047;53.486;10.218;2024-03-06T13:22:25;12.00;;;7.75;;
17844;SDS011;9047;53.486;10.218;2024-03-06T13:24:56;11.95;;;7.70;;
17844;SDS011;9047;53.486;10.218;2024-03-06T13:27:25;10.48;;;6.88;;
17844;SDS011;9047;53.486;10.218;2024-03-06T13:29:58;11.85;;;6.80;;
17844;SDS011;9047;53.486;10.218;2024-03-06T13:32:33;10.90;;;7.32;;
17844;SDS011;9047;53.486;10.218;2024-03-06T13:35:14;10.65;;;7.20;;
17844;SDS011;9047;53.486;10.218;2024-03-06T13:37:44;9.82;;;7.30;;
17844;SDS011;9047;53.486;10.218;2024-03-06T13:40:20;10.27;;;7.00;;
17844;SDS011;9047;53.486;10.218;2024-03-06T13:42:55;10.30;;;6.75;;
17844;SDS011;9047;53.486;10.218;2024-03-06T13:45:30;10.02;;;7.15;;
17844;SDS011;9047;53.486;10.218;2024-03-06T13:48:02;11.35;;;7.03;;
17844;SDS011;9047;53.486;10.218;2024-03-06T13:50:43;10.80;;;7.07;;
17844;SDS011;9047;53.486;10.218;2024-03-06T13:53:13;9.07;;;6.60;;
17844;SDS011;9047;53.486;10.218;2024-03-06T13:55:43;11.20;;;7.05;;
17844;SDS011;9047;53.486;10.218;2024-03-06T13:58:12;10.25;;;6.55;;
17844;SDS011;9047;53.486;10.218;2024-03-06T14:00:39;8.38;;;6.45;;
17844;SDS011;9047;53.486;10.218;2024-03-06T14:03:09;10.70;;;6.55;;
17844;SDS011;9047;53.486;10.218;2024-03-06T14:05:39;9.60;;;6.90;;
17844;SDS011;9047;53.486;10.218;2024-03-06T14:08:09;10.77;;;6.63;;
17844;SDS011;9047;53.486;10.218;2024-03-06T14:10:41;11.23;;;7.07;;
17844;SDS011;9047;53.486;10.218;2024-03-06T14:13:14;10.55;;;6.68;;
17844;SDS011;9047;53.486;10.218;2024-03-06T14:15:45;9.27;;;6.75;;
17844;SDS011;9047;53.486;10.218;2024-03-06T14:18:16;10.27;;;7.03;;
17844;SDS011;9047;53.486;10.218;2024-03-06T14:20:46;9.07;;;6.20;;
17844;SDS011;9047;53.486;10.218;2024-03-06T14:23:18;10.23;;;6.25;;
17844;SDS011;9047;53.486;10.218;2024-03-06T14:25:50;10.70;;;6.90;;
17844;SDS011;9047;53.486;10.218;2024-03-06T14:28:18;8.93;;;6.30;;
17844;SDS011;9047;53.486;10.218;2024-03-06T14:30:50;18.13;;;6.50;;
17844;SDS011;9047;53.486;10.218;2024-03-06T14:33:25;11.13;;;7.05;;
17844;SDS011;9047;53.486;10.218;2024-03-06T14:35:58;9.75;;;6.75;;
17844;SDS011;9047;53.486;10.218;2024-03-06T14:38:33;10.60;;;6.50;;
17844;SDS011;9047;53.486;10.218;2024-03-06T14:41:05;9.55;;;6.35;;
17844;SDS011;9047;53.486;10.218;2024-03-06T14:43:37;9.85;;;6.78;;
17844;SDS011;9047;53.486;10.218;2024-03-06T14:46:05;8.23;;;6.25;;
17844;SDS011;9047;53.486;10.218;2024-03-06T14:48:38;10.88;;;6.97;;
17844;SDS011;9047;53.486;10.218;2024-03-06T14:51:06;9.82;;;6.95;;
17844;SDS011;9047;53.486;10.218;2024-03-06T14:53:37;9.10;;;6.40;;
17844;SDS011;9047;53.486;10.218;2024-03-06T14:56:07;9.05;;;6.60;;
17844;SDS011;9047;53.486;10.218;2024-03-06T14:58:40;9.98;;;6.40;;
17844;SDS011;9047;53.486;10.218;2024-03-06T15:01:10;10.43;;;6.40;;